createdAt,value
2019-02-27T00:00:11.411Z,4.51
2019-02-27T00:01:09.874Z,4.44
2019-02-27T00:02:09.787Z,4.42
2019-02-27T00:03:09.699Z,4.41
2019-02-27T00:04:09.636Z,4.37
2019-02-27T00:05:09.549Z,4.45
2019-02-27T00:06:09.452Z,4.44
2019-02-27T00:07:09.367Z,4.48
2019-02-27T00:08:09.276Z,4.41
2019-02-27T00:09:09.201Z,4.41
2019-02-27T00:10:09.115Z,4.48
2019-02-27T00:11:09.918Z,4.51
2019-02-27T00:12:08.939Z,4.48
2019-02-27T00:13:08.849Z,4.42
2019-02-27T00:14:08.766Z,4.51
2019-02-27T00:15:08.688Z,4.44
2019-02-27T00:16:10.849Z,4.45
2019-02-27T00:17:08.515Z,4.40
2019-02-27T00:18:08.429Z,4.36
2019-02-27T00:19:08.341Z,4.44
2019-02-27T00:20:08.254Z,4.44
2019-02-27T00:21:10.511Z,4.45
2019-02-27T00:22:08.089Z,4.40
2019-02-27T00:23:08.003Z,4.36
2019-02-27T00:24:07.922Z,4.33
2019-02-27T00:25:07.840Z,4.44
2019-02-27T00:26:09.052Z,4.36
2019-02-27T00:27:07.668Z,4.45
2019-02-27T00:28:07.576Z,4.41
2019-02-27T00:29:07.491Z,4.41
2019-02-27T00:30:07.403Z,4.37
2019-02-27T00:31:11.204Z,4.32
2019-02-27T00:32:07.245Z,4.34
2019-02-27T00:33:07.152Z,4.40
2019-02-27T00:34:07.065Z,4.42
2019-02-27T00:35:07.405Z,4.44
2019-02-27T00:36:06.891Z,4.41
2019-02-27T00:37:06.807Z,4.30
2019-02-27T00:38:06.729Z,4.30
2019-02-27T00:39:06.645Z,4.36
2019-02-27T00:40:06.569Z,4.30
2019-02-27T00:41:06.468Z,4.33
2019-02-27T00:42:06.380Z,4.27
2019-02-27T00:43:06.305Z,4.27
2019-02-27T00:44:06.219Z,4.37
2019-02-27T00:45:07.075Z,4.29
2019-02-27T00:46:06.041Z,4.27
2019-02-27T00:47:05.953Z,4.18
2019-02-27T00:48:05.869Z,4.18
2019-02-27T00:49:05.794Z,4.15
2019-02-27T00:50:06.610Z,4.18
2019-02-27T00:51:05.620Z,4.12
2019-02-27T00:52:05.531Z,4.29
2019-02-27T00:53:05.443Z,4.15
2019-02-27T00:54:05.355Z,4.16
2019-02-27T00:55:05.381Z,4.14
2019-02-27T00:56:05.193Z,4.20
2019-02-27T00:57:05.107Z,4.14
2019-02-27T00:58:05.017Z,3.96
2019-02-27T00:59:04.936Z,4.04
2019-02-27T01:00:06.503Z,4.04
2019-02-27T01:01:04.759Z,4.04
2019-02-27T01:02:04.682Z,3.98
2019-02-27T01:03:04.596Z,3.93
2019-02-27T01:04:04.507Z,4.04
2019-02-27T01:05:06.261Z,3.98
2019-02-27T01:06:04.330Z,3.94
2019-02-27T01:07:04.243Z,3.97
2019-02-27T01:08:04.168Z,3.98
2019-02-27T01:09:06.330Z,3.98
2019-02-27T01:10:04.001Z,3.93
2019-02-27T01:11:03.908Z,3.90
2019-02-27T01:12:03.821Z,3.94
2019-02-27T01:13:03.734Z,3.94
2019-02-27T01:14:04.154Z,3.91
2019-02-27T01:15:03.572Z,3.93
2019-02-27T01:16:03.483Z,4.04
2019-02-27T01:17:03.394Z,3.84
2019-02-27T01:18:03.307Z,3.86
2019-02-27T01:19:04.801Z,3.80
2019-02-27T01:20:03.147Z,3.86
2019-02-27T01:21:03.072Z,3.83
2019-02-27T01:22:03.272Z,3.73
2019-02-27T01:23:02.884Z,3.86
2019-02-27T01:24:02.797Z,3.83
2019-02-27T01:25:02.708Z,3.84
2019-02-27T01:26:02.632Z,3.84
2019-02-27T01:27:04.509Z,3.83
2019-02-27T01:28:02.470Z,3.91
2019-02-27T01:29:02.409Z,3.84
2019-02-27T01:30:02.285Z,3.91
2019-02-27T01:31:02.196Z,3.80
2019-02-27T01:32:02.108Z,3.84
2019-02-27T01:33:04.117Z,3.84
2019-02-27T01:34:01.949Z,3.72
2019-02-27T01:35:01.874Z,3.75
2019-02-27T01:36:01.774Z,3.68
2019-02-27T01:37:01.684Z,3.70
2019-02-27T01:38:05.105Z,3.78
2019-02-27T01:39:01.510Z,3.70
2019-02-27T01:40:01.434Z,3.73
2019-02-27T01:41:01.354Z,3.70
2019-02-27T01:42:01.262Z,3.73
2019-02-27T01:43:05.254Z,3.78
2019-02-27T01:44:01.088Z,3.73
2019-02-27T01:45:01.000Z,3.80
2019-02-27T01:46:00.925Z,3.70
2019-02-27T01:47:02.404Z,3.79
2019-02-27T01:48:00.750Z,3.83
2019-02-27T01:49:00.660Z,3.80
2019-02-27T01:50:00.575Z,3.78
2019-02-27T01:51:00.485Z,3.70
2019-02-27T01:52:02.086Z,3.69
2019-02-27T01:53:00.314Z,3.62
2019-02-27T01:54:00.238Z,3.60
2019-02-27T01:55:00.307Z,3.58
2019-02-27T01:56:00.063Z,3.58
2019-02-27T01:57:02.734Z,3.52
2019-02-27T01:57:59.887Z,3.57
2019-02-27T01:58:59.799Z,3.54
2019-02-27T01:59:59.713Z,3.60
2019-02-27T02:00:59.638Z,3.57
2019-02-27T02:02:01.115Z,3.55
2019-02-27T02:02:59.464Z,3.51
2019-02-27T02:03:59.376Z,3.45
2019-02-27T02:04:59.287Z,3.50
2019-02-27T02:05:59.793Z,3.50
2019-02-27T02:06:59.113Z,3.52
2019-02-27T02:07:59.038Z,3.57
2019-02-27T02:08:58.953Z,3.47
2019-02-27T02:09:58.864Z,3.45
2019-02-27T02:10:58.921Z,3.45
2019-02-27T02:11:58.989Z,3.47
2019-02-27T02:12:58.600Z,3.39
2019-02-27T02:13:58.513Z,3.40
2019-02-27T02:14:58.438Z,3.36
2019-02-27T02:16:00.864Z,3.39
2019-02-27T02:16:58.263Z,3.45
2019-02-27T02:17:58.177Z,3.43
2019-02-27T02:18:58.089Z,3.43
2019-02-27T02:19:58.002Z,3.43
2019-02-27T02:21:00.907Z,3.43
2019-02-27T02:21:57.840Z,3.42
2019-02-27T02:22:57.755Z,3.40
2019-02-27T02:23:57.666Z,3.39
2019-02-27T02:24:57.577Z,3.36
2019-02-27T02:26:01.104Z,3.45
2019-02-27T02:26:57.416Z,3.50
2019-02-27T02:27:57.327Z,3.42
2019-02-27T02:28:57.229Z,3.42
2019-02-27T02:29:57.157Z,3.35
2019-02-27T02:30:57.070Z,3.42
2019-02-27T02:31:56.979Z,3.40
2019-02-27T02:32:56.892Z,3.43
2019-02-27T02:33:56.806Z,3.33
2019-02-27T02:34:56.735Z,3.32
2019-02-27T02:35:56.630Z,3.33
2019-02-27T02:37:01.422Z,3.47
2019-02-27T02:37:56.466Z,3.32
2019-02-27T02:38:56.382Z,3.40
2019-02-27T02:39:56.291Z,3.40
2019-02-27T02:40:56.207Z,3.32
2019-02-27T02:41:56.130Z,3.47
2019-02-27T02:42:59.211Z,3.32
2019-02-27T02:43:55.944Z,3.31
2019-02-27T02:44:57.690Z,3.39
2019-02-27T02:45:55.781Z,3.40
2019-02-27T02:46:55.692Z,3.35
2019-02-27T02:47:56.696Z,3.31
2019-02-27T02:48:55.531Z,3.23
2019-02-27T02:49:55.429Z,3.21
2019-02-27T02:50:55.343Z,3.26
2019-02-27T02:51:55.259Z,3.15
2019-02-27T02:52:55.171Z,3.20
2019-02-27T02:54:00.666Z,3.17
2019-02-27T02:54:55.009Z,3.31
2019-02-27T02:55:54.934Z,3.33
2019-02-27T02:57:00.124Z,3.32
2019-02-27T02:57:54.743Z,3.26
2019-02-27T02:58:54.658Z,3.31
2019-02-27T02:59:59.374Z,3.31
2019-02-27T03:00:54.494Z,3.32
2019-02-27T03:01:54.408Z,3.29
2019-02-27T03:02:57.685Z,3.20
2019-02-27T03:03:54.235Z,3.24
2019-02-27T03:04:54.147Z,3.21
2019-02-27T03:05:58.395Z,3.17
2019-02-27T03:49:40.018Z,3.14
2019-02-27T03:50:36.340Z,3.11
2019-02-27T03:51:36.239Z,3.08
2019-02-27T03:52:37.190Z,3.10
2019-02-27T03:53:36.062Z,3.14
2019-02-27T03:54:35.975Z,3.03
2019-02-27T03:55:35.886Z,3.03
2019-02-27T03:56:35.810Z,3.05
2019-02-27T03:57:35.714Z,3.02
2019-02-27T03:58:35.638Z,3.00
2019-02-27T03:59:38.754Z,2.97
2019-02-27T04:00:35.461Z,2.99
2019-02-27T04:01:35.376Z,2.97
2019-02-27T04:02:35.288Z,2.92
2019-02-27T04:03:35.200Z,2.96
2019-02-27T04:04:35.113Z,2.90
2019-02-27T04:05:41.036Z,2.92
2019-02-27T04:06:34.939Z,2.85
2019-02-27T04:07:34.849Z,2.84
2019-02-27T04:08:34.767Z,2.89
2019-02-27T04:09:34.692Z,2.81
2019-02-27T04:10:34.603Z,2.85
2019-02-27T04:11:34.515Z,2.89
2019-02-27T04:12:34.426Z,2.79
2019-02-27T04:13:34.341Z,2.72
2019-02-27T04:14:40.287Z,2.75
2019-02-27T04:15:34.164Z,2.72
2019-02-27T04:16:34.079Z,2.78
2019-02-27T04:17:34.000Z,2.74
2019-02-27T04:18:33.906Z,2.84
2019-02-27T04:19:38.745Z,2.84
2019-02-27T04:20:33.750Z,2.77
2019-02-27T04:21:33.655Z,2.74
2019-02-27T04:22:36.575Z,2.79
2019-02-27T04:23:33.479Z,2.78
2019-02-27T04:24:33.390Z,2.77
2019-02-27T04:25:33.306Z,2.71
2019-02-27T04:26:33.218Z,2.71
2019-02-27T04:27:33.127Z,2.74
2019-02-27T04:28:33.047Z,2.78
2019-02-27T04:29:32.956Z,2.69
2019-02-27T04:30:32.880Z,2.75
2019-02-27T04:31:32.794Z,2.66
2019-02-27T04:32:32.707Z,2.66
2019-02-27T04:33:32.616Z,2.64
2019-02-27T04:34:33.299Z,2.69
2019-02-27T04:35:34.262Z,2.71
2019-02-27T04:36:32.353Z,2.60
2019-02-27T04:37:32.266Z,2.67
2019-02-27T04:38:32.178Z,2.63
2019-02-27T04:39:32.091Z,2.59
2019-02-27T04:40:32.018Z,2.57
2019-02-27T04:41:31.930Z,2.56
2019-02-27T04:42:31.846Z,2.64
2019-02-27T04:43:32.297Z,2.69
2019-02-27T04:44:31.667Z,2.64
2019-02-27T04:45:31.578Z,2.75
2019-02-27T04:46:31.492Z,2.66
2019-02-27T04:47:31.416Z,2.75
2019-02-27T04:48:31.405Z,2.72
2019-02-27T04:49:31.231Z,2.74
2019-02-27T04:50:31.144Z,2.69
2019-02-27T04:51:31.058Z,2.72
2019-02-27T04:52:30.982Z,2.66
2019-02-27T04:53:31.921Z,2.72
2019-02-27T04:54:30.805Z,2.66
2019-02-27T04:55:30.720Z,2.66
2019-02-27T04:56:30.633Z,2.66
2019-02-27T04:57:30.836Z,2.69
2019-02-27T04:58:31.344Z,2.72
2019-02-27T04:59:30.375Z,2.61
2019-02-27T05:00:30.280Z,2.71
2019-02-27T05:01:30.194Z,2.66
2019-02-27T05:02:30.106Z,2.61
2019-02-27T05:03:30.030Z,2.67
2019-02-27T05:04:34.887Z,2.67
2019-02-27T05:05:29.857Z,2.60
2019-02-27T05:06:29.772Z,2.61
2019-02-27T05:07:29.695Z,2.66
2019-02-27T05:08:29.596Z,2.67
2019-02-27T05:09:31.339Z,2.71
2019-02-27T05:10:29.424Z,2.77
2019-02-27T05:11:29.337Z,2.74
2019-02-27T05:12:29.246Z,2.69
2019-02-27T05:13:29.158Z,2.71
2019-02-27T05:14:29.070Z,2.67
2019-02-27T05:15:28.983Z,2.71
2019-02-27T05:16:28.909Z,2.67
2019-02-27T05:17:28.823Z,2.63
2019-02-27T05:18:29.469Z,2.66
2019-02-27T05:19:28.653Z,2.69
2019-02-27T05:20:28.560Z,2.67
2019-02-27T05:21:28.472Z,2.72
2019-02-27T05:22:28.382Z,2.67
2019-02-27T05:23:28.308Z,2.67
2019-02-27T05:24:28.222Z,2.71
2019-02-27T05:25:28.120Z,2.67
2019-02-27T05:26:28.033Z,2.59
2019-02-27T05:27:27.946Z,2.67
2019-02-27T05:28:27.862Z,2.69
2019-02-27T05:29:27.785Z,2.69
2019-02-27T05:30:27.698Z,2.60
2019-02-27T05:31:27.624Z,2.59
2019-02-27T05:32:28.337Z,2.69
2019-02-27T05:33:27.437Z,2.56
2019-02-27T05:34:27.349Z,2.54
2019-02-27T05:35:27.259Z,2.52
2019-02-27T05:36:29.028Z,2.56
2019-02-27T05:37:27.089Z,2.46
2019-02-27T05:38:27.003Z,2.48
2019-02-27T05:39:26.912Z,2.46
2019-02-27T05:40:26.824Z,2.45
2019-02-27T05:41:26.737Z,2.46
2019-02-27T05:42:26.650Z,2.56
2019-02-27T05:43:26.580Z,2.49
2019-02-27T05:44:26.485Z,2.48
2019-02-27T05:45:30.340Z,2.42
2019-02-27T05:46:26.310Z,2.53
2019-02-27T05:47:26.223Z,2.46
2019-02-27T05:48:26.137Z,2.38
2019-02-27T05:49:27.388Z,2.38
2019-02-27T05:50:25.963Z,2.46
2019-02-27T05:51:25.879Z,2.42
2019-02-27T05:52:25.786Z,2.31
2019-02-27T05:53:25.706Z,2.45
2019-02-27T05:54:25.619Z,2.34
2019-02-27T05:55:25.524Z,2.49
2019-02-27T05:56:25.437Z,2.43
2019-02-27T05:57:25.349Z,2.41
2019-02-27T05:58:25.269Z,2.39
2019-02-27T05:59:28.889Z,2.42
2019-02-27T06:00:25.102Z,2.36
2019-02-27T06:01:25.002Z,2.36
2019-02-27T06:02:25.548Z,2.38
2019-02-27T06:03:24.838Z,2.35
2019-02-27T06:04:25.114Z,2.42
2019-02-27T06:05:24.662Z,2.41
2019-02-27T06:06:24.575Z,2.35
2019-02-27T06:07:24.487Z,2.38
2019-02-27T06:08:24.403Z,2.38
2019-02-27T06:09:24.315Z,2.31
2019-02-27T06:10:24.254Z,2.38
2019-02-27T06:11:24.153Z,2.30
2019-02-27T06:12:24.053Z,2.31
2019-02-27T06:13:23.965Z,2.42
2019-02-27T06:14:23.887Z,2.39
2019-02-27T06:15:26.011Z,2.48
2019-02-27T06:16:23.701Z,2.52
2019-02-27T06:17:23.624Z,2.41
2019-02-27T06:18:23.775Z,2.48
2019-02-27T06:19:23.457Z,2.39
2019-02-27T06:20:23.366Z,2.39
2019-02-27T06:21:23.285Z,2.46
2019-02-27T06:22:23.192Z,2.52
2019-02-27T06:23:23.104Z,2.56
2019-02-27T06:24:23.014Z,2.53
2019-02-27T06:25:23.967Z,2.57
2019-02-27T06:26:22.854Z,2.60
2019-02-27T06:27:22.754Z,2.53
2019-02-27T06:28:22.664Z,2.60
2019-02-27T06:29:23.934Z,2.56
2019-02-27T06:30:22.490Z,2.59
2019-02-27T06:31:22.414Z,2.56
2019-02-27T06:32:22.330Z,2.57
2019-02-27T06:33:22.243Z,2.61
2019-02-27T06:34:22.292Z,2.71
2019-02-27T06:35:22.067Z,2.72
2019-02-27T06:36:21.978Z,2.69
2019-02-27T06:37:21.890Z,2.71
2019-02-27T06:38:25.013Z,2.67
2019-02-27T06:39:21.716Z,2.72
2019-02-27T06:40:21.652Z,2.84
2019-02-27T06:41:21.543Z,2.90
2019-02-27T06:42:21.537Z,2.90
2019-02-27T06:43:21.370Z,2.93
2019-02-27T06:44:21.293Z,3.00
2019-02-27T06:45:21.209Z,3.06
2019-02-27T06:46:21.119Z,3.14
2019-02-27T06:47:21.032Z,3.18
2019-02-27T06:48:20.942Z,3.31
2019-02-27T06:49:20.855Z,3.39
2019-02-27T06:50:25.283Z,3.48
2019-02-27T06:51:20.680Z,3.55
2019-02-27T06:52:20.596Z,3.57
2019-02-27T06:53:20.507Z,3.61
2019-02-27T06:54:20.420Z,3.72
2019-02-27T06:55:20.345Z,3.70
2019-02-27T06:56:20.256Z,3.76
2019-02-27T06:57:20.168Z,3.80
2019-02-27T06:58:20.080Z,3.87
2019-02-27T06:59:24.531Z,3.96
2019-02-27T07:00:19.908Z,4.04
2019-02-27T07:01:19.826Z,3.96
2019-02-27T07:02:21.669Z,4.06
2019-02-27T07:03:19.646Z,4.00
2019-02-27T07:04:19.569Z,4.12
2019-02-27T07:05:19.482Z,4.24
2019-02-27T07:06:21.658Z,4.22
2019-02-27T07:07:19.310Z,4.32
2019-02-27T07:08:19.236Z,4.42
2019-02-27T07:09:19.135Z,4.48
2019-02-27T07:10:20.037Z,4.72
2019-02-27T07:11:18.971Z,4.73
2019-02-27T07:12:21.661Z,4.84
2019-02-27T07:13:18.794Z,5.04
2019-02-27T07:14:18.707Z,5.21
2019-02-27T07:15:18.620Z,5.51
2019-02-27T07:16:20.492Z,5.60
2019-02-27T07:17:18.446Z,5.76
2019-02-27T07:18:18.369Z,5.89
2019-02-27T07:19:18.283Z,5.94
2019-02-27T07:20:18.197Z,5.97
2019-02-27T07:21:18.112Z,5.96
2019-02-27T07:22:18.023Z,6.15
2019-02-27T07:23:22.636Z,6.22
2019-02-27T07:24:17.862Z,6.40
2019-02-27T07:25:17.772Z,6.73
2019-02-27T07:26:17.684Z,6.97
2019-02-27T07:27:17.596Z,7.25
2019-02-27T07:28:17.511Z,7.61
2019-02-27T07:29:21.576Z,8.08
2019-02-27T07:30:17.349Z,8.23
2019-02-27T07:31:18.329Z,8.70
2019-02-27T07:32:17.173Z,8.87
2019-02-27T07:33:17.088Z,9.15
2019-02-27T07:34:17.012Z,9.35
2019-02-27T07:35:16.928Z,9.32
2019-02-27T07:36:16.842Z,9.46
2019-02-27T07:37:16.748Z,9.46
2019-02-27T07:38:21.412Z,9.53
2019-02-27T07:39:16.585Z,9.65
2019-02-27T07:40:16.500Z,9.58
2019-02-27T07:41:20.225Z,9.84
2019-02-27T07:42:16.339Z,9.84
2019-02-27T07:43:16.249Z,10.01
2019-02-27T07:44:16.172Z,9.89
2019-02-27T07:45:16.085Z,9.86
2019-02-27T07:46:15.999Z,9.93
2019-02-27T07:47:15.923Z,10.05
2019-02-27T07:48:15.836Z,9.90
2019-02-27T07:49:15.749Z,9.74
2019-02-27T07:50:15.674Z,9.79
2019-02-27T07:51:15.586Z,9.72
2019-02-27T07:52:15.501Z,9.61
2019-02-27T07:53:17.470Z,9.58
2019-02-27T07:54:15.339Z,9.42
2019-02-27T07:55:21.584Z,9.14
2019-02-27T07:56:15.174Z,8.99
2019-02-27T07:57:15.087Z,8.62
2019-02-27T07:58:15.013Z,8.55
2019-02-27T07:59:14.924Z,8.58
2019-02-27T08:00:15.191Z,8.41
2019-02-27T08:01:14.766Z,8.29
2019-02-27T08:02:14.677Z,8.33
2019-02-27T08:03:14.601Z,8.22
2019-02-27T08:04:19.058Z,8.11
2019-02-27T08:05:14.428Z,7.98
2019-02-27T08:06:14.355Z,8.01
2019-02-27T08:07:14.265Z,7.93
2019-02-27T08:08:14.189Z,7.75
2019-02-27T08:09:14.102Z,7.87
2019-02-27T08:10:14.021Z,7.86
2019-02-27T08:11:14.248Z,7.86
2019-02-27T08:12:13.854Z,7.90
2019-02-27T08:13:13.767Z,7.85
2019-02-27T08:14:13.691Z,7.95
2019-02-27T08:15:13.729Z,7.98
2019-02-27T08:16:13.519Z,8.08
2019-02-27T08:17:17.625Z,8.10
2019-02-27T08:18:13.406Z,8.05
2019-02-27T08:19:13.264Z,8.05
2019-02-27T08:20:13.191Z,8.02
2019-02-27T08:21:13.103Z,8.10
2019-02-27T08:22:13.021Z,8.15
2019-02-27T08:23:12.940Z,8.33
2019-02-27T08:24:12.854Z,8.33
2019-02-27T08:25:12.769Z,8.53
2019-02-27T08:26:12.693Z,8.55
2019-02-27T08:27:12.604Z,8.79
2019-02-27T08:28:12.520Z,9.02
2019-02-27T08:29:12.441Z,9.36
2019-02-27T08:30:12.366Z,9.64
2019-02-27T08:31:12.268Z,10.05
2019-02-27T08:32:12.192Z,10.26
2019-02-27T08:33:12.105Z,10.53
2019-02-27T08:34:12.018Z,10.88
2019-02-27T08:35:11.943Z,11.03
2019-02-27T08:36:11.854Z,11.21
2019-02-27T08:37:11.769Z,11.37
2019-02-27T08:38:11.701Z,11.37
2019-02-27T08:39:11.610Z,11.47
2019-02-27T08:40:11.530Z,11.60
2019-02-27T08:41:11.447Z,11.78
2019-02-27T08:42:11.354Z,11.90
2019-02-27T08:43:11.279Z,12.04
2019-02-27T08:44:12.279Z,12.09
2019-02-27T08:45:19.182Z,12.19
2019-02-27T08:46:11.032Z,12.39
2019-02-27T08:47:10.956Z,12.47
2019-02-27T08:48:10.868Z,12.37
2019-02-27T08:49:10.780Z,12.67
2019-02-27T08:50:10.705Z,13.04
2019-02-27T08:51:10.630Z,13.15
2019-02-27T08:52:13.096Z,13.28
2019-02-27T08:53:10.455Z,13.51
2019-02-27T08:54:10.380Z,13.82
2019-02-27T08:55:18.834Z,14.00
2019-02-27T08:56:12.181Z,14.12
2019-02-27T08:57:10.132Z,14.29
2019-02-27T08:58:10.059Z,14.43
2019-02-27T08:59:09.971Z,14.81
2019-02-27T09:00:14.185Z,14.98
2019-02-27T09:01:09.806Z,15.07
2019-02-27T09:02:09.731Z,15.16
2019-02-27T09:03:19.668Z,15.01
2019-02-27T09:04:11.688Z,15.23
2019-02-27T09:05:09.486Z,15.29
2019-02-27T09:06:09.409Z,14.94
2019-02-27T09:07:09.322Z,15.09
2019-02-27T09:08:10.143Z,15.03
2019-02-27T09:09:09.158Z,15.09
2019-02-27T09:10:09.094Z,14.83
2019-02-27T09:11:09.008Z,14.46
2019-02-27T09:12:13.189Z,14.28
2019-02-27T09:13:08.847Z,14.39
2019-02-27T09:14:08.760Z,14.35
2019-02-27T09:15:08.704Z,14.73
2019-02-27T09:16:08.608Z,15.06
2019-02-27T09:17:08.521Z,15.01
2019-02-27T09:18:08.446Z,14.99
2019-02-27T09:19:09.467Z,15.03
2019-02-27T09:20:08.285Z,14.70
2019-02-27T09:21:08.214Z,14.80
2019-02-27T09:22:08.123Z,14.83
2019-02-27T09:23:08.048Z,14.91
2019-02-27T09:24:07.961Z,15.29
2019-02-27T09:25:07.885Z,15.56
2019-02-27T09:26:07.811Z,15.74
2019-02-27T09:27:07.724Z,16.09
2019-02-27T09:28:09.291Z,16.11
2019-02-27T09:29:07.561Z,16.38
2019-02-27T09:30:07.484Z,16.75
2019-02-27T09:31:07.409Z,16.89
2019-02-27T09:32:11.395Z,16.91
2019-02-27T09:33:07.250Z,16.60
2019-02-27T09:34:07.201Z,16.86
2019-02-27T09:35:07.087Z,17.01
2019-02-27T09:36:08.042Z,17.11
2019-02-27T09:37:06.927Z,17.26
2019-02-27T09:38:08.561Z,16.53
2019-02-27T09:39:06.762Z,16.17
2019-02-27T09:40:06.685Z,16.00
2019-02-27T09:41:06.610Z,16.08
2019-02-27T09:42:06.525Z,15.96
2019-02-27T09:43:06.449Z,16.02
2019-02-27T09:44:06.376Z,15.93
2019-02-27T09:45:08.288Z,15.97
2019-02-27T09:46:06.336Z,15.72
2019-02-27T09:47:06.137Z,15.72
2019-02-27T09:48:06.049Z,15.76
2019-02-27T09:49:07.056Z,15.38
2019-02-27T09:50:05.889Z,15.14
2019-02-27T09:51:05.811Z,14.92
2019-02-27T09:52:05.739Z,14.75
2019-02-27T09:53:05.655Z,14.98
2019-02-27T09:54:05.577Z,15.06
2019-02-27T09:55:05.502Z,14.86
2019-02-27T09:56:05.413Z,14.72
2019-02-27T09:57:05.338Z,14.61
2019-02-27T09:58:09.923Z,14.72
2019-02-27T09:59:05.177Z,14.69
2019-02-27T10:00:05.100Z,14.69
2019-02-27T10:01:05.015Z,14.55
2019-02-27T10:02:06.287Z,14.46
2019-02-27T10:03:04.851Z,14.42
2019-02-27T10:04:04.778Z,14.35
2019-02-27T10:05:04.689Z,14.35
2019-02-27T10:06:04.615Z,14.28
2019-02-27T10:07:04.539Z,14.36
2019-02-27T10:08:04.452Z,14.46
2019-02-27T10:09:04.378Z,14.46
2019-02-27T10:10:04.291Z,14.40
2019-02-27T10:11:04.213Z,14.33
2019-02-27T10:12:04.126Z,14.40
2019-02-27T10:13:04.136Z,14.35
2019-02-27T10:14:03.976Z,14.46
2019-02-27T10:15:03.889Z,14.37
2019-02-27T10:16:03.835Z,14.36
2019-02-27T10:17:03.732Z,14.39
2019-02-27T10:18:03.660Z,14.43
2019-02-27T10:19:03.573Z,14.46
2019-02-27T10:20:03.488Z,14.55
2019-02-27T10:21:03.403Z,14.46
2019-02-27T10:22:03.328Z,14.35
2019-02-27T10:23:03.240Z,14.50
2019-02-27T10:24:04.819Z,14.46
2019-02-27T10:25:03.082Z,14.57
2019-02-27T10:26:03.006Z,14.62
2019-02-27T10:27:03.210Z,14.65
2019-02-27T10:28:04.369Z,14.89
2019-02-27T10:29:02.768Z,15.09
2019-02-27T10:30:11.084Z,15.20
2019-02-27T10:31:02.611Z,15.21
2019-02-27T10:32:02.519Z,15.38
2019-02-27T10:33:03.438Z,15.21
2019-02-27T10:34:02.357Z,15.34
2019-02-27T10:35:02.279Z,15.41
2019-02-27T10:36:03.675Z,15.46
2019-02-27T10:37:02.159Z,15.31
2019-02-27T10:38:02.043Z,15.35
2019-02-27T10:39:02.229Z,15.28
2019-02-27T10:40:01.880Z,15.23
2019-02-27T10:41:01.794Z,15.06
2019-02-27T10:42:01.718Z,15.06
2019-02-27T10:43:01.643Z,15.07
2019-02-27T10:44:01.555Z,15.11
2019-02-27T10:45:01.480Z,15.23
2019-02-27T10:46:01.405Z,15.25
2019-02-27T10:47:01.318Z,15.21
2019-02-27T10:48:01.245Z,15.34
2019-02-27T10:49:01.161Z,15.23
2019-02-27T10:50:02.200Z,15.19
2019-02-27T10:51:00.994Z,15.44
2019-02-27T10:52:00.917Z,15.56
2019-02-27T10:53:00.832Z,15.56
2019-02-27T10:54:04.508Z,15.74
2019-02-27T10:55:00.683Z,15.67
2019-02-27T10:56:00.597Z,15.76
2019-02-27T10:57:00.520Z,15.94
2019-02-27T10:58:00.436Z,16.02
2019-02-27T10:59:00.358Z,16.05
2019-02-27T11:00:00.332Z,16.14
2019-02-27T11:01:01.120Z,16.27
2019-02-27T11:02:00.123Z,16.43
2019-02-27T11:03:00.034Z,16.49
2019-02-27T11:04:00.530Z,16.67
2019-02-27T11:04:59.872Z,16.60
2019-02-27T11:05:59.794Z,16.66
2019-02-27T11:06:59.719Z,16.71
2019-02-27T11:07:59.639Z,16.76
2019-02-27T11:08:59.560Z,16.78
2019-02-27T11:09:59.485Z,16.86
2019-02-27T11:10:59.399Z,16.96
2019-02-27T11:11:59.322Z,16.88
2019-02-27T11:12:59.244Z,17.15
2019-02-27T11:13:59.158Z,17.06
2019-02-27T11:14:59.083Z,17.30
2019-02-27T11:15:58.999Z,17.55
2019-02-27T11:17:02.045Z,18.10
2019-02-27T11:18:04.222Z,18.50
2019-02-27T11:18:58.758Z,18.69
2019-02-27T11:19:58.684Z,18.82
2019-02-27T11:20:59.249Z,18.76
2019-02-27T11:21:59.088Z,18.91
2019-02-27T11:22:58.445Z,18.82
2019-02-27T11:23:58.371Z,18.51
2019-02-27T11:24:58.295Z,18.20
2019-02-27T11:25:58.209Z,17.97
2019-02-27T11:26:58.134Z,17.90
2019-02-27T11:27:58.060Z,18.25
2019-02-27T11:28:57.980Z,18.36
2019-02-27T11:30:01.251Z,18.20
2019-02-27T11:30:57.836Z,18.23
2019-02-27T11:31:57.746Z,18.08
2019-02-27T11:32:58.006Z,18.21
2019-02-27T11:33:57.585Z,18.44
2019-02-27T11:34:57.510Z,18.30
2019-02-27T11:35:57.436Z,18.63
2019-02-27T11:36:57.346Z,18.91
2019-02-27T11:37:57.276Z,19.08
2019-02-27T11:38:59.179Z,19.61
2019-02-27T11:39:57.123Z,19.92
2019-02-27T11:40:57.036Z,20.38
2019-02-27T11:41:56.961Z,20.29
2019-02-27T11:42:56.889Z,20.98
2019-02-27T11:43:56.811Z,21.49
2019-02-27T11:44:56.738Z,21.71
2019-02-27T11:45:58.049Z,21.74
2019-02-27T11:46:58.928Z,22.10
2019-02-27T11:47:56.500Z,21.90
2019-02-27T11:48:56.998Z,21.96
2019-02-27T11:49:56.349Z,21.65
2019-02-27T11:50:56.274Z,21.62
2019-02-27T11:51:57.101Z,22.03
2019-02-27T11:52:56.126Z,22.35
2019-02-27T11:53:56.062Z,22.33
2019-02-27T11:54:55.976Z,21.83
2019-02-27T11:55:55.899Z,22.14
2019-02-27T11:56:56.934Z,22.33
2019-02-27T11:57:55.762Z,22.12
2019-02-27T11:58:55.674Z,21.82
2019-02-27T11:59:55.613Z,22.24
2019-02-27T12:00:55.526Z,22.76
2019-02-27T12:01:56.187Z,22.43
2019-02-27T12:02:55.427Z,22.55
2019-02-27T12:03:55.314Z,22.57
2019-02-27T12:04:56.658Z,22.68
2019-02-27T12:05:55.166Z,22.67
2019-02-27T12:06:55.089Z,22.07
2019-02-27T12:07:55.015Z,22.00
2019-02-27T12:08:59.454Z,21.88
2019-02-27T12:09:54.865Z,22.07
2019-02-27T12:10:54.789Z,22.14
2019-02-27T12:11:54.726Z,22.40
2019-02-27T12:12:59.715Z,22.67
2019-02-27T12:13:54.867Z,22.67
2019-02-27T12:14:54.502Z,22.49
2019-02-27T12:15:54.428Z,22.68
2019-02-27T12:16:54.354Z,22.76
2019-02-27T12:17:54.277Z,22.75
2019-02-27T12:18:54.201Z,22.43
2019-02-27T12:19:54.127Z,22.55
2019-02-27T12:20:54.140Z,22.73
2019-02-27T12:21:53.990Z,22.82
2019-02-27T12:22:53.915Z,22.85
2019-02-27T12:23:53.840Z,22.70
2019-02-27T12:24:53.765Z,22.31
2019-02-27T12:25:53.691Z,22.27
2019-02-27T12:26:53.616Z,22.27
2019-02-27T12:27:53.545Z,21.94
2019-02-27T12:28:53.675Z,21.75
2019-02-27T12:29:53.418Z,22.14
2019-02-27T12:30:53.328Z,22.28
2019-02-27T12:31:53.253Z,22.73
2019-02-27T12:32:55.747Z,22.72
2019-02-27T12:33:53.106Z,22.67
2019-02-27T12:34:53.028Z,23.02
2019-02-27T12:35:52.954Z,23.05
2019-02-27T12:36:53.263Z,22.70
2019-02-27T12:37:52.817Z,22.88
2019-02-27T12:38:52.741Z,22.91
2019-02-27T12:39:52.667Z,22.72
2019-02-27T12:40:52.593Z,22.68
2019-02-27T12:41:52.518Z,22.86
2019-02-27T12:42:52.443Z,23.19
2019-02-27T12:43:52.682Z,23.10
2019-02-27T12:44:54.605Z,23.25
2019-02-27T12:45:52.242Z,22.98
2019-02-27T12:46:52.156Z,23.23
2019-02-27T12:47:52.080Z,23.39
2019-02-27T12:48:52.005Z,23.25
2019-02-27T12:49:54.167Z,23.12
2019-02-27T12:50:51.869Z,22.72
2019-02-27T12:51:51.793Z,22.70
2019-02-27T12:52:51.719Z,22.85
2019-02-27T12:53:54.353Z,22.85
2019-02-27T12:54:51.569Z,22.73
2019-02-27T12:55:51.495Z,22.77
2019-02-27T12:57:33.608Z,22.82
2019-02-27T12:58:33.545Z,23.07
2019-02-27T12:59:33.672Z,22.88
2019-02-27T13:00:33.395Z,22.85
2019-02-27T13:01:33.325Z,22.67
2019-02-27T13:02:35.783Z,22.39
2019-02-27T13:03:33.172Z,22.39
2019-02-27T13:04:33.107Z,22.30
2019-02-27T13:05:33.032Z,22.12
2019-02-27T13:06:37.142Z,21.79
2019-02-27T13:07:32.883Z,21.71
2019-02-27T13:08:32.807Z,21.92
2019-02-27T13:09:32.735Z,22.30
2019-02-27T13:10:34.022Z,22.64
2019-02-27T13:11:32.596Z,22.57
2019-02-27T13:12:32.521Z,22.64
2019-02-27T13:13:32.445Z,22.46
2019-02-27T13:14:33.360Z,22.40
2019-02-27T13:15:32.300Z,21.74
2019-02-27T13:16:32.232Z,21.92
2019-02-27T13:17:32.158Z,21.96
2019-02-27T13:18:32.685Z,22.02
2019-02-27T13:19:32.022Z,22.37
2019-02-27T13:20:31.934Z,22.46
2019-02-27T13:21:31.859Z,22.55
2019-02-27T13:22:31.784Z,22.86
2019-02-27T13:23:31.710Z,22.90
2019-02-27T13:24:31.647Z,22.75
2019-02-27T13:25:31.579Z,22.82
2019-02-27T13:26:34.605Z,22.67
2019-02-27T13:27:31.422Z,22.06
2019-02-27T13:28:31.346Z,22.25
2019-02-27T13:29:31.273Z,22.07
2019-02-27T13:30:31.209Z,21.99
2019-02-27T13:31:31.136Z,21.91
2019-02-27T13:32:31.062Z,21.86
2019-02-27T13:34:13.915Z,21.74
2019-02-27T13:35:13.035Z,21.69
2019-02-27T13:36:12.961Z,22.05
2019-02-27T13:37:12.886Z,22.12
2019-02-27T13:38:17.707Z,21.71
2019-02-27T13:39:12.748Z,21.64
2019-02-27T13:40:12.677Z,21.65
2019-02-27T13:41:12.601Z,21.71
2019-02-27T13:42:12.523Z,22.00
2019-02-27T13:43:12.449Z,22.30
2019-02-27T13:44:12.576Z,22.49
2019-02-27T13:45:13.312Z,22.36
2019-02-27T13:46:12.232Z,21.35
2019-02-27T13:47:12.148Z,21.46
2019-02-27T13:48:12.075Z,21.74
2019-02-27T13:49:14.007Z,21.31
2019-02-27T13:50:11.936Z,20.95